createdAt,value
2024-01-21T00:00:22.733Z,12.30
2024-01-21T00:02:50.282Z,12.00
2024-01-21T00:05:17.141Z,10.70
2024-01-21T00:07:43.804Z,11.20
2024-01-21T00:10:13.417Z,10.50
2024-01-21T00:12:40.403Z,11.70
2024-01-21T00:15:07.848Z,9.80
2024-01-21T00:17:34.475Z,11.10
2024-01-21T00:20:01.056Z,11.20
2024-01-21T00:22:27.564Z,10.30
2024-01-21T00:24:54.200Z,10.90
2024-01-21T00:27:20.847Z,11.20
2024-01-21T00:29:47.451Z,9.50
2024-01-21T00:32:14.196Z,9.90
2024-01-21T00:34:41.205Z,10.80
2024-01-21T00:37:07.721Z,11.20
2024-01-21T00:39:34.731Z,10.20
2024-01-21T00:42:08.111Z,10.90
2024-01-21T00:44:37.405Z,11.10
2024-01-21T00:47:05.156Z,12.70
2024-01-21T00:49:33.071Z,10.70
2024-01-21T00:52:00.212Z,9.90
2024-01-21T00:54:26.819Z,11.50
2024-01-21T00:56:53.661Z,11.40
2024-01-21T00:59:20.456Z,11.10
2024-01-21T01:01:47.110Z,11.80
2024-01-21T01:04:14.245Z,11.60
2024-01-21T01:06:41.873Z,10.90
2024-01-21T01:09:09.172Z,10.90
2024-01-21T01:11:36.909Z,11.90
2024-01-21T01:14:04.119Z,11.70
2024-01-21T01:16:30.710Z,11.10
2024-01-21T01:18:58.874Z,11.20
2024-01-21T01:21:25.733Z,10.90
2024-01-21T01:23:52.304Z,10.10
2024-01-21T01:26:20.095Z,11.30
2024-01-21T01:28:46.768Z,12.20
2024-01-21T01:31:20.533Z,11.30
2024-01-21T01:33:47.901Z,11.00
2024-01-21T01:36:15.558Z,11.00
2024-01-21T01:38:43.976Z,12.40
2024-01-21T01:43:38.105Z,9.70
2024-01-21T01:46:07.508Z,9.60
2024-01-21T01:48:34.795Z,11.90
2024-01-21T01:51:05.517Z,10.30
2024-01-21T01:53:34.394Z,10.60
2024-01-21T01:56:01.698Z,12.30
2024-01-21T01:58:29.224Z,12.70
2024-01-21T02:00:57.644Z,11.30
2024-01-21T02:03:25.751Z,10.10
2024-01-21T02:05:52.978Z,11.00
2024-01-21T02:08:19.903Z,11.20
2024-01-21T02:10:47.365Z,12.30
2024-01-21T02:13:14.143Z,11.10
2024-01-21T02:15:40.849Z,12.50
2024-01-21T02:18:07.692Z,11.20
2024-01-21T02:20:36.122Z,11.50
2024-01-21T02:23:05.349Z,9.60
2024-01-21T02:25:31.879Z,11.70
2024-01-21T02:27:58.535Z,10.70
2024-01-21T02:30:25.175Z,11.20
2024-01-21T02:32:51.888Z,11.00
2024-01-21T02:35:18.457Z,10.80
2024-01-21T02:37:45.007Z,10.20
2024-01-21T02:40:11.877Z,9.80
2024-01-21T02:42:38.641Z,10.60
2024-01-21T02:45:06.008Z,11.00
2024-01-21T02:47:32.630Z,10.60
2024-01-21T02:49:59.565Z,11.30
2024-01-21T02:52:26.463Z,11.80
2024-01-21T02:54:53.056Z,11.10
2024-01-21T02:57:19.959Z,11.60
2024-01-21T02:59:46.516Z,11.90
2024-01-21T03:02:13.060Z,11.30
2024-01-21T03:04:40.315Z,11.70
2024-01-21T03:07:06.852Z,11.90
2024-01-21T03:09:33.465Z,11.00
2024-01-21T03:12:00.303Z,12.10
2024-01-21T03:14:26.801Z,11.60
2024-01-21T03:16:54.923Z,12.20
2024-01-21T03:19:21.662Z,11.00
2024-01-21T03:21:48.374Z,11.90
2024-01-21T03:24:15.279Z,11.80
2024-01-21T03:26:42.317Z,10.90
2024-01-21T03:29:09.055Z,10.50
2024-01-21T03:31:35.656Z,11.00
2024-01-21T03:34:04.903Z,11.60
2024-01-21T03:39:22.954Z,12.00
2024-01-21T03:41:50.247Z,11.00
2024-01-21T03:44:16.851Z,11.70
2024-01-21T03:46:43.424Z,10.80
2024-01-21T03:49:10.280Z,11.30
2024-01-21T03:51:36.896Z,11.90
2024-01-21T03:54:03.864Z,12.40
2024-01-21T03:56:32.427Z,10.40
2024-01-21T03:58:58.912Z,10.80
2024-01-21T04:01:25.628Z,12.20
2024-01-21T04:03:52.873Z,10.60
2024-01-21T04:06:19.664Z,11.10
2024-01-21T04:08:46.655Z,11.10
2024-01-21T04:11:13.369Z,12.00
2024-01-21T04:13:41.220Z,11.30
2024-01-21T04:16:07.842Z,11.50
2024-01-21T04:18:34.609Z,11.90
2024-01-21T04:21:02.882Z,11.90
2024-01-21T04:23:29.383Z,10.10
2024-01-21T04:28:23.151Z,12.10
2024-01-21T04:30:50.027Z,11.80
2024-01-21T04:33:17.209Z,11.20
2024-01-21T04:35:44.364Z,10.60
2024-01-21T04:38:11.520Z,10.90
2024-01-21T04:40:39.803Z,11.10
2024-01-21T04:43:06.369Z,11.70
2024-01-21T04:45:33.429Z,12.00
2024-01-21T04:48:00.776Z,11.40
2024-01-21T04:50:27.989Z,12.60
2024-01-21T04:52:54.459Z,11.20
2024-01-21T04:55:21.009Z,11.20
2024-01-21T04:57:47.740Z,12.10
2024-01-21T05:00:15.529Z,11.30
2024-01-21T05:02:42.057Z,10.60
2024-01-21T05:05:09.031Z,11.10
2024-01-21T05:07:35.600Z,10.70
2024-01-21T05:10:02.570Z,12.90
2024-01-21T05:12:29.452Z,14.40
2024-01-21T05:14:57.378Z,11.20
2024-01-21T05:17:24.529Z,12.70
2024-01-21T05:19:51.547Z,11.70
2024-01-21T05:22:18.648Z,11.70
2024-01-21T05:24:45.231Z,10.50
2024-01-21T05:27:12.031Z,12.60
2024-01-21T05:29:43.070Z,12.60
2024-01-21T05:32:09.746Z,12.60
2024-01-21T05:34:36.798Z,11.70
2024-01-21T05:37:03.569Z,12.70
2024-01-21T05:39:30.522Z,11.30
2024-01-21T05:42:15.389Z,12.30
2024-01-21T05:44:43.088Z,11.60
2024-01-21T05:47:10.477Z,12.00
2024-01-21T05:49:37.183Z,12.30
2024-01-21T05:52:04.793Z,12.50
2024-01-21T05:54:31.585Z,11.10
2024-01-21T05:56:58.410Z,9.70
2024-01-21T05:59:25.259Z,10.60
2024-01-21T06:01:52.658Z,11.80
2024-01-21T06:04:19.435Z,11.70
2024-01-21T06:06:46.351Z,13.20
2024-01-21T06:09:13.195Z,11.50
2024-01-21T06:11:41.762Z,9.90
2024-01-21T06:14:08.859Z,11.00
2024-01-21T06:16:35.621Z,11.90
2024-01-21T06:19:03.001Z,11.50
2024-01-21T06:21:30.263Z,11.80
2024-01-21T06:23:57.355Z,13.10
2024-01-21T06:26:24.415Z,10.60
2024-01-21T06:28:51.645Z,11.00
2024-01-21T06:31:19.527Z,11.80
2024-01-21T06:33:46.808Z,12.00
2024-01-21T06:36:13.526Z,12.90
2024-01-21T06:38:40.346Z,10.90
2024-01-21T06:41:06.871Z,13.00
2024-01-21T06:43:33.851Z,12.50
2024-01-21T06:46:00.712Z,12.90
2024-01-21T06:48:28.378Z,13.70
2024-01-21T06:50:55.356Z,12.20
2024-01-21T06:53:21.945Z,6.70
2024-01-21T06:55:48.565Z,17.20
2024-01-21T06:58:15.231Z,16.00
2024-01-21T07:00:42.067Z,11.90
2024-01-21T07:03:09.273Z,12.40
2024-01-21T07:05:36.115Z,11.80
2024-01-21T07:08:03.057Z,11.10
2024-01-21T07:10:29.620Z,14.10
2024-01-21T07:12:57.463Z,11.70
2024-01-21T07:15:25.522Z,10.80
2024-01-21T07:20:19.485Z,9.10
2024-01-21T07:22:46.232Z,11.60
2024-01-21T07:25:15.795Z,11.50
2024-01-21T07:27:44.295Z,13.40
2024-01-21T07:30:12.648Z,12.00
2024-01-21T07:35:10.393Z,11.40
2024-01-21T07:37:37.906Z,11.70
2024-01-21T07:40:06.937Z,12.80
2024-01-21T07:42:34.258Z,13.50
2024-01-21T07:45:00.884Z,13.10
2024-01-21T07:47:28.428Z,11.90
2024-01-21T07:49:55.107Z,11.20
2024-01-21T07:52:22.374Z,11.10
2024-01-21T07:54:49.318Z,12.60
2024-01-21T07:57:15.891Z,11.80
2024-01-21T07:59:43.081Z,10.30
2024-01-21T08:02:10.145Z,10.40
2024-01-21T08:04:37.582Z,11.90
2024-01-21T08:07:04.777Z,12.60
2024-01-21T08:09:32.502Z,10.40
2024-01-21T08:11:59.154Z,11.00
2024-01-21T08:14:26.103Z,9.60
2024-01-21T08:16:53.299Z,11.40
2024-01-21T08:19:21.890Z,11.00
2024-01-21T08:21:48.693Z,9.10
2024-01-21T08:24:15.706Z,9.40
2024-01-21T08:26:42.842Z,10.70
2024-01-21T08:29:09.364Z,8.70
2024-01-21T08:31:43.953Z,10.50
2024-01-21T08:34:10.974Z,10.60
2024-01-21T08:36:38.821Z,11.00
2024-01-21T08:39:06.608Z,13.70
2024-01-21T08:41:36.002Z,11.70
2024-01-21T08:44:05.884Z,12.30
2024-01-21T08:46:32.433Z,12.10
2024-01-21T08:49:00.149Z,11.90
2024-01-21T08:51:26.901Z,13.80
2024-01-21T08:53:58.201Z,14.10
2024-01-21T08:56:26.866Z,12.00
2024-01-21T08:58:54.683Z,12.10
2024-01-21T09:01:22.566Z,10.50
2024-01-21T09:03:49.967Z,11.70
2024-01-21T09:06:17.004Z,12.30
2024-01-21T09:08:44.098Z,11.10
2024-01-21T09:11:10.826Z,11.50
2024-01-21T09:13:37.514Z,10.90
2024-01-21T09:16:04.435Z,12.50
2024-01-21T09:18:32.522Z,13.20
2024-01-21T09:21:00.070Z,13.80
2024-01-21T09:23:27.277Z,13.10
2024-01-21T09:25:53.933Z,13.90
2024-01-21T09:28:20.755Z,15.10
2024-01-21T09:30:47.993Z,15.10
2024-01-21T09:33:15.103Z,15.60
2024-01-21T09:35:42.984Z,15.70
2024-01-21T09:38:12.017Z,14.60
2024-01-21T09:40:39.179Z,14.20
2024-01-21T09:43:06.081Z,13.60
2024-01-21T09:45:35.509Z,15.90
2024-01-21T09:48:05.089Z,14.80
2024-01-21T09:50:32.726Z,13.50
2024-01-21T09:52:59.291Z,11.20
2024-01-21T09:55:26.250Z,13.70
2024-01-21T09:57:54.391Z,15.30
2024-01-21T10:00:21.977Z,16.10
2024-01-21T10:02:51.235Z,15.60
2024-01-21T10:05:17.995Z,14.10
2024-01-21T10:07:45.436Z,13.30
2024-01-21T10:10:13.925Z,13.60
2024-01-21T10:12:42.107Z,14.40
2024-01-21T10:15:13.045Z,14.10
2024-01-21T10:17:39.672Z,14.80
2024-01-21T10:20:14.219Z,15.60
2024-01-21T10:22:42.852Z,16.20
2024-01-21T10:25:13.291Z,15.70
2024-01-21T10:27:39.899Z,16.10
2024-01-21T10:30:09.288Z,17.20
2024-01-21T10:32:36.085Z,14.70
2024-01-21T10:35:03.314Z,16.10
2024-01-21T10:37:32.104Z,15.70
2024-01-21T10:40:01.261Z,15.00
2024-01-21T10:42:29.745Z,18.10
2024-01-21T10:44:57.342Z,17.40
2024-01-21T10:47:25.895Z,15.60
2024-01-21T10:49:52.590Z,16.80
2024-01-21T10:52:21.096Z,16.60
2024-01-21T10:54:49.079Z,19.50
2024-01-21T10:57:16.821Z,19.80
2024-01-21T10:59:45.174Z,16.20
2024-01-21T11:02:12.169Z,17.00
2024-01-21T11:04:38.890Z,15.90
2024-01-21T11:07:09.625Z,16.80
2024-01-21T11:09:38.232Z,16.40
2024-01-21T11:12:06.132Z,18.40
2024-01-21T11:14:37.836Z,16.40
2024-01-21T11:17:11.503Z,17.20
2024-01-21T11:19:50.663Z,15.70
2024-01-21T11:22:21.463Z,15.00
2024-01-21T11:24:48.214Z,15.70
2024-01-21T11:27:15.722Z,14.70
2024-01-21T11:29:42.996Z,16.30
2024-01-21T11:32:12.287Z,16.30
2024-01-21T11:34:42.606Z,15.80
2024-01-21T11:37:15.034Z,14.00
2024-01-21T11:39:43.422Z,14.30
2024-01-21T11:42:11.338Z,14.00
2024-01-21T11:44:39.555Z,15.70
2024-01-21T11:47:07.706Z,18.30
2024-01-21T11:52:07.313Z,15.30
2024-01-21T11:54:38.361Z,17.40
2024-01-21T11:57:08.987Z,18.50
2024-01-21T11:59:36.984Z,17.80
2024-01-21T12:02:08.880Z,17.70
2024-01-21T12:04:36.125Z,18.10
2024-01-21T12:07:04.355Z,18.30
2024-01-21T12:09:32.292Z,16.50
2024-01-21T12:11:59.367Z,18.10
2024-01-21T12:14:26.818Z,18.80
2024-01-21T12:16:55.306Z,16.70
2024-01-21T12:19:24.804Z,16.60
2024-01-21T12:21:52.893Z,17.60
2024-01-21T12:24:24.048Z,16.60
2024-01-21T12:26:52.003Z,16.60
2024-01-21T12:29:21.240Z,17.50
2024-01-21T12:31:50.462Z,18.30
2024-01-21T12:34:19.988Z,17.10
2024-01-21T12:36:48.084Z,17.10
2024-01-21T12:39:17.517Z,17.70
2024-01-21T12:41:44.345Z,18.00
2024-01-21T12:44:11.051Z,17.80
2024-01-21T12:46:39.386Z,17.50
2024-01-21T12:49:07.365Z,16.80
2024-01-21T12:51:36.549Z,18.70
2024-01-21T12:54:03.635Z,17.20
2024-01-21T12:56:30.301Z,16.50
2024-01-21T12:58:57.137Z,17.90
2024-01-21T13:01:24.694Z,16.50
2024-01-21T13:03:54.266Z,16.30
2024-01-21T13:06:22.242Z,16.50
2024-01-21T13:08:49.933Z,17.00
2024-01-21T13:13:43.429Z,16.10
2024-01-21T13:16:11.105Z,17.20
2024-01-21T13:18:38.965Z,16.00
2024-01-21T13:21:08.609Z,17.90
2024-01-21T13:23:35.778Z,16.90
2024-01-21T13:26:03.006Z,16.60
2024-01-21T13:28:39.863Z,17.00
2024-01-21T13:31:07.036Z,17.50
2024-01-21T13:33:34.249Z,18.50
2024-01-21T13:38:33.921Z,16.50
2024-01-21T13:41:04.496Z,16.10
2024-01-21T13:43:32.411Z,16.70
2024-01-21T13:45:59.382Z,16.80
2024-01-21T13:48:26.151Z,15.90
2024-01-21T13:50:53.338Z,17.50
2024-01-21T13:53:20.112Z,16.50
2024-01-21T13:55:47.801Z,16.80
2024-01-21T13:58:18.467Z,16.30
2024-01-21T14:00:45.804Z,14.60
2024-01-21T14:03:13.729Z,14.60
2024-01-21T14:05:41.615Z,15.30
2024-01-21T14:08:08.548Z,14.60
2024-01-21T14:10:35.810Z,13.60
2024-01-21T14:13:03.520Z,14.00
2024-01-21T14:15:30.360Z,14.90
2024-01-21T14:17:57.756Z,15.20
2024-01-21T14:20:24.890Z,13.40
2024-01-21T14:22:51.978Z,14.90
2024-01-21T14:25:28.192Z,14.10
2024-01-21T14:27:55.881Z,13.70
2024-01-21T14:30:30.627Z,14.50
2024-01-21T14:32:59.045Z,14.40
2024-01-21T14:35:29.998Z,13.20
2024-01-21T14:37:59.006Z,13.10
2024-01-21T14:40:29.828Z,13.60
2024-01-21T14:42:58.629Z,13.40
2024-01-21T14:45:25.855Z,12.80
2024-01-21T14:47:53.934Z,13.70
2024-01-21T14:50:20.796Z,14.30
2024-01-21T14:52:49.249Z,13.70
2024-01-21T14:55:16.960Z,12.90
2024-01-21T14:57:45.948Z,13.00
2024-01-21T15:00:14.087Z,11.90
2024-01-21T15:02:41.160Z,13.90
2024-01-21T15:05:09.413Z,13.40
2024-01-21T15:07:37.018Z,14.20
2024-01-21T15:10:05.845Z,13.90
2024-01-21T15:12:33.328Z,13.80
2024-01-21T15:15:28.953Z,13.70
2024-01-21T15:17:55.918Z,12.00
2024-01-21T15:20:22.753Z,13.90
2024-01-21T15:22:49.417Z,14.10
2024-01-21T15:25:16.606Z,15.40
2024-01-21T15:27:43.235Z,15.20
2024-01-21T15:30:10.925Z,16.20
2024-01-21T15:32:39.208Z,15.20
2024-01-21T15:35:06.463Z,14.40
2024-01-21T15:37:33.563Z,16.10
2024-01-21T15:40:00.497Z,13.10
2024-01-21T15:42:27.628Z,14.60
2024-01-21T15:44:54.694Z,14.00
2024-01-21T15:47:21.489Z,15.80
2024-01-21T15:49:48.765Z,14.40
2024-01-21T15:52:16.139Z,14.30
2024-01-21T15:54:42.870Z,15.70
2024-01-21T15:57:10.254Z,14.30
2024-01-21T15:59:36.803Z,15.00
2024-01-21T16:02:04.539Z,14.20
2024-01-21T16:04:31.573Z,15.40
2024-01-21T16:06:58.354Z,14.30
2024-01-21T16:09:25.016Z,13.50
2024-01-21T16:11:52.454Z,15.60
2024-01-21T16:14:19.204Z,15.90
2024-01-21T16:16:47.920Z,15.40
2024-01-21T16:19:15.825Z,17.10
2024-01-21T16:21:43.077Z,15.00
2024-01-21T16:24:10.343Z,14.80
2024-01-21T16:26:36.978Z,15.80
2024-01-21T16:29:03.925Z,15.30
2024-01-21T16:31:32.112Z,14.80
2024-01-21T16:33:59.183Z,16.20
2024-01-21T16:36:27.034Z,15.90
2024-01-21T16:38:53.707Z,15.20
2024-01-21T16:41:20.466Z,16.00
2024-01-21T16:43:50.466Z,13.90
2024-01-21T16:46:17.432Z,15.60
2024-01-21T16:48:44.143Z,14.90
2024-01-21T16:51:11.808Z,15.10
2024-01-21T16:53:39.272Z,14.00
2024-01-21T16:56:06.552Z,14.20
2024-01-21T16:58:33.584Z,14.60
2024-01-21T17:01:02.289Z,14.60
2024-01-21T17:03:30.828Z,14.00
2024-01-21T17:05:58.588Z,14.90
2024-01-21T17:08:25.390Z,14.70
2024-01-21T17:11:11.006Z,15.70
2024-01-21T17:13:37.841Z,12.50
2024-01-21T17:16:05.479Z,13.80
2024-01-21T17:18:59.790Z,13.90
2024-01-21T17:21:26.416Z,14.40
2024-01-21T17:23:53.627Z,14.90
2024-01-21T17:26:20.274Z,14.30
2024-01-21T17:28:48.230Z,15.90
2024-01-21T17:33:45.587Z,14.00
2024-01-21T17:36:13.320Z,14.90
2024-01-21T17:38:39.988Z,14.80
2024-01-21T17:41:07.272Z,14.00
2024-01-21T17:43:34.178Z,14.80
2024-01-21T17:46:00.818Z,14.30
2024-01-21T17:48:27.888Z,14.00
2024-01-21T17:50:54.880Z,14.20
2024-01-21T17:53:21.778Z,14.20
2024-01-21T17:55:49.844Z,14.20
2024-01-21T17:58:17.161Z,14.60
2024-01-21T18:00:45.298Z,14.60
2024-01-21T18:03:12.296Z,13.80
2024-01-21T18:05:39.030Z,14.40
2024-01-21T18:08:06.466Z,14.70
2024-01-21T18:10:33.349Z,14.80
2024-01-21T18:13:00.153Z,15.60
2024-01-21T18:15:26.793Z,13.80
2024-01-21T18:17:53.903Z,14.00
2024-01-21T18:20:20.570Z,15.10
2024-01-21T18:22:47.323Z,13.60
2024-01-21T18:25:14.746Z,13.40
2024-01-21T18:27:41.443Z,14.00
2024-01-21T18:30:10.182Z,14.00
2024-01-21T18:32:36.974Z,13.60
2024-01-21T18:35:05.608Z,14.00
2024-01-21T18:37:33.281Z,15.60
2024-01-21T18:39:59.857Z,13.70
2024-01-21T18:42:27.414Z,15.20
2024-01-21T18:44:54.315Z,14.00
2024-01-21T18:47:20.955Z,14.00
2024-01-21T18:49:47.609Z,14.10
2024-01-21T18:52:14.903Z,14.60
2024-01-21T18:54:41.979Z,15.20
2024-01-21T18:57:12.612Z,15.00
2024-01-21T18:59:42.815Z,13.90
2024-01-21T19:02:11.056Z,13.90
2024-01-21T19:04:44.529Z,14.00
2024-01-21T19:07:15.381Z,14.10
2024-01-21T19:09:42.157Z,13.90
2024-01-21T19:12:09.404Z,16.10
2024-01-21T19:14:36.897Z,15.70
2024-01-21T19:17:04.006Z,15.10
2024-01-21T19:19:31.391Z,14.50
2024-01-21T19:21:59.471Z,15.50
2024-01-21T19:24:26.288Z,15.80
2024-01-21T19:26:53.011Z,14.80
2024-01-21T19:29:19.989Z,14.20
2024-01-21T19:31:46.878Z,14.90
2024-01-21T19:34:13.701Z,14.10
2024-01-21T19:36:40.682Z,13.20
2024-01-21T19:39:07.421Z,13.30
2024-01-21T19:41:34.561Z,12.70
2024-01-21T19:44:01.237Z,13.20
2024-01-21T19:46:27.790Z,13.80
2024-01-21T19:48:54.864Z,12.70
2024-01-21T19:51:26.481Z,11.40
2024-01-21T19:53:53.801Z,14.50
2024-01-21T19:56:21.791Z,14.40
2024-01-21T20:01:16.335Z,11.80
2024-01-21T20:03:44.405Z,11.80
2024-01-21T20:06:14.199Z,11.70
2024-01-21T20:08:41.556Z,12.00
2024-01-21T20:11:08.860Z,22.90
2024-01-21T20:13:35.481Z,25.30
2024-01-21T20:16:02.218Z,20.20
2024-01-21T20:18:29.746Z,19.40
2024-01-21T20:20:56.658Z,12.10
2024-01-21T20:23:23.419Z,15.90
2024-01-21T20:25:50.124Z,11.90
2024-01-21T20:28:18.166Z,12.40
2024-01-21T20:30:44.951Z,11.80
2024-01-21T20:33:12.046Z,12.20
2024-01-21T20:35:40.733Z,12.40
2024-01-21T20:38:07.941Z,14.30
2024-01-21T20:40:34.915Z,12.10
2024-01-21T20:43:01.522Z,16.30
2024-01-21T20:45:28.726Z,16.60
2024-01-21T20:47:56.749Z,15.40
2024-01-21T20:50:23.563Z,14.50
2024-01-21T20:52:56.645Z,13.50
2024-01-21T20:55:26.936Z,12.50
2024-01-21T20:57:54.279Z,13.30
2024-01-21T21:00:22.294Z,13.80
2024-01-21T21:02:49.084Z,13.20
2024-01-21T21:05:16.022Z,13.60
2024-01-21T21:07:42.909Z,13.10
2024-01-21T21:10:10.465Z,12.30
2024-01-21T21:12:37.094Z,13.30
2024-01-21T21:15:03.827Z,12.00
2024-01-21T21:17:31.172Z,13.10
2024-01-21T21:19:57.870Z,12.20
2024-01-21T21:22:24.479Z,12.50
2024-01-21T21:24:51.256Z,13.30
2024-01-21T21:27:18.314Z,14.70
2024-01-21T21:29:45.146Z,15.50
2024-01-21T21:32:11.848Z,13.70
2024-01-21T21:34:39.265Z,18.70
2024-01-21T21:37:07.106Z,17.00
2024-01-21T21:39:34.149Z,21.20
2024-01-21T21:42:01.200Z,13.80
2024-01-21T21:44:28.405Z,14.30
2024-01-21T21:46:56.514Z,14.20
2024-01-21T21:49:24.806Z,12.20
2024-01-21T21:51:51.814Z,11.60
2024-01-21T21:54:19.116Z,11.90
2024-01-21T21:56:47.002Z,10.90
2024-01-21T21:59:13.918Z,10.20
2024-01-21T22:01:40.532Z,9.00
2024-01-21T22:04:07.686Z,9.20
2024-01-21T22:06:34.884Z,8.00
2024-01-21T22:09:02.072Z,7.80
2024-01-21T22:11:29.209Z,7.30
2024-01-21T22:13:56.089Z,7.00
2024-01-21T22:16:22.656Z,6.60
2024-01-21T22:18:49.877Z,5.90
2024-01-21T22:21:20.523Z,5.70
2024-01-21T22:23:48.746Z,5.50
2024-01-21T22:26:19.271Z,7.40
2024-01-21T22:28:46.053Z,5.00
2024-01-21T22:31:13.718Z,4.80
2024-01-21T22:33:40.694Z,5.00
2024-01-21T22:36:07.716Z,5.30
2024-01-21T22:38:34.639Z,5.10
2024-01-21T22:41:01.332Z,4.10
2024-01-21T22:43:28.071Z,4.60
2024-01-21T22:45:54.853Z,4.00
2024-01-21T22:48:22.091Z,4.30
2024-01-21T22:50:49.035Z,3.90
2024-01-21T22:53:16.284Z,4.70
2024-01-21T22:55:42.815Z,4.40
2024-01-21T22:58:09.551Z,5.20
2024-01-21T23:00:36.231Z,4.30
2024-01-21T23:03:03.281Z,4.50
2024-01-21T23:05:30.055Z,4.90
2024-01-21T23:07:56.778Z,3.90
2024-01-21T23:10:23.326Z,4.20
2024-01-21T23:12:50.031Z,4.30
2024-01-21T23:15:17.161Z,4.40
2024-01-21T23:17:44.133Z,3.50
2024-01-21T23:20:11.502Z,4.00
2024-01-21T23:22:38.299Z,3.20
2024-01-21T23:25:05.725Z,4.80
2024-01-21T23:27:32.302Z,3.90
2024-01-21T23:29:59.073Z,4.30
2024-01-21T23:32:26.243Z,3.20
2024-01-21T23:34:53.756Z,2.60
2024-01-21T23:37:20.927Z,3.90
2024-01-21T23:39:47.502Z,3.70
2024-01-21T23:42:14.582Z,3.80
2024-01-21T23:44:41.293Z,4.00
2024-01-21T23:47:07.808Z,4.20
2024-01-21T23:49:35.173Z,3.60
2024-01-21T23:52:01.913Z,3.40
2024-01-21T23:54:28.647Z,3.80
2024-01-21T23:56:55.281Z,3.50
2024-01-21T23:59:22.244Z,3.40
